createdAt,value
2017-12-21T00:02:14.693Z,85.90
2017-12-21T00:04:42.232Z,85.90
2017-12-21T00:07:09.757Z,85.70
2017-12-21T00:09:37.317Z,86.00
2017-12-21T00:12:05.355Z,86.40
2017-12-21T00:14:32.892Z,86.40
2017-12-21T00:17:00.397Z,86.00
2017-12-21T00:19:29.537Z,87.00
2017-12-21T00:21:57.029Z,87.00
2017-12-21T00:24:24.510Z,87.10
2017-12-21T00:26:51.997Z,87.00
2017-12-21T00:29:19.483Z,87.60
2017-12-21T00:31:46.991Z,86.30
2017-12-21T00:34:15.272Z,85.90
2017-12-21T00:36:42.762Z,85.90
2017-12-21T00:39:11.036Z,85.90
2017-12-21T00:41:39.334Z,86.00
2017-12-21T00:44:07.580Z,86.10
2017-12-21T00:46:35.112Z,86.10
2017-12-21T00:49:02.599Z,86.40
2017-12-21T00:51:30.100Z,86.40
2017-12-21T00:53:57.641Z,86.30
2017-12-21T00:56:25.560Z,86.00
2017-12-21T00:58:53.046Z,85.90
2017-12-21T01:01:20.656Z,85.90
2017-12-21T01:03:48.975Z,85.60
2017-12-21T01:06:16.525Z,85.60
2017-12-21T01:08:44.038Z,86.00
2017-12-21T01:11:11.542Z,86.40
2017-12-21T01:13:39.069Z,86.70
2017-12-21T01:16:06.577Z,87.10
2017-12-21T01:18:34.082Z,86.80
2017-12-21T01:21:01.574Z,86.60
2017-12-21T01:23:30.050Z,86.60
2017-12-21T01:25:57.542Z,86.50
2017-12-21T01:28:25.046Z,86.80
2017-12-21T01:30:52.545Z,87.30
2017-12-21T01:33:20.824Z,88.40
2017-12-21T01:35:49.103Z,88.70
2017-12-21T01:38:17.383Z,88.90
2017-12-21T01:40:44.862Z,88.90
2017-12-21T01:43:13.117Z,88.90
2017-12-21T01:45:41.405Z,88.70
2017-12-21T01:48:09.665Z,89.00
2017-12-21T01:50:37.221Z,88.90
2017-12-21T01:53:04.754Z,88.90
2017-12-21T01:55:32.240Z,89.00
2017-12-21T01:57:59.728Z,89.00
2017-12-21T02:00:27.983Z,89.60
2017-12-21T02:02:55.473Z,89.60
2017-12-21T02:05:24.469Z,89.60
2017-12-21T02:07:52.076Z,89.50
2017-12-21T02:10:19.585Z,89.80
2017-12-21T02:12:47.080Z,89.80
2017-12-21T02:15:15.329Z,89.30
2017-12-21T02:17:43.032Z,89.30
2017-12-21T02:20:11.296Z,89.80
2017-12-21T02:22:38.813Z,89.80
2017-12-21T02:25:06.431Z,90.00
2017-12-21T02:27:34.738Z,89.60
2017-12-21T02:30:02.216Z,90.00
2017-12-21T02:32:29.745Z,89.90
2017-12-21T02:34:58.033Z,89.90
2017-12-21T02:37:26.330Z,90.00
2017-12-21T02:39:53.798Z,90.00
2017-12-21T02:42:22.098Z,90.00
2017-12-21T02:44:49.592Z,90.10
2017-12-21T02:47:17.078Z,90.10
2017-12-21T02:49:45.340Z,90.00
2017-12-21T02:52:12.825Z,90.00
2017-12-21T02:54:41.097Z,90.10
2017-12-21T02:57:09.366Z,90.10
2017-12-21T02:59:37.632Z,90.20
2017-12-21T03:02:05.217Z,90.20
2017-12-21T03:04:33.493Z,90.30
2017-12-21T03:07:01.769Z,90.10
2017-12-21T03:09:29.345Z,90.00
2017-12-21T03:11:56.939Z,90.00
2017-12-21T03:14:24.655Z,89.60
2017-12-21T03:16:52.157Z,90.00
2017-12-21T03:19:19.850Z,90.00
2017-12-21T03:21:47.789Z,90.00
2017-12-21T03:24:16.046Z,90.20
2017-12-21T03:26:43.575Z,90.20
2017-12-21T03:29:11.931Z,90.30
2017-12-21T03:31:39.425Z,90.30
2017-12-21T03:34:06.923Z,90.40
2017-12-21T03:36:34.408Z,90.30
2017-12-21T03:39:02.661Z,90.40
2017-12-21T03:41:30.429Z,90.30
2017-12-21T03:43:58.848Z,90.40
2017-12-21T03:46:27.081Z,90.30
2017-12-21T03:48:55.533Z,90.30
2017-12-21T03:51:23.090Z,90.30
2017-12-21T03:53:50.656Z,90.30
2017-12-21T03:56:18.279Z,90.30
2017-12-21T03:58:46.561Z,90.20
2017-12-21T04:01:14.105Z,89.90
2017-12-21T04:03:41.629Z,90.10
2017-12-21T04:06:09.782Z,89.90
2017-12-21T04:08:38.026Z,89.80
2017-12-21T04:11:05.512Z,89.80
2017-12-21T04:13:33.791Z,90.30
2017-12-21T04:16:01.380Z,90.00
2017-12-21T04:18:28.872Z,90.30
2017-12-21T04:20:56.360Z,90.20
2017-12-21T04:23:24.059Z,90.30
2017-12-21T04:25:52.336Z,90.20
2017-12-21T04:28:20.611Z,90.40
2017-12-21T04:30:48.885Z,90.50
2017-12-21T04:33:16.392Z,90.50
2017-12-21T04:35:44.134Z,90.60
2017-12-21T04:38:12.646Z,90.50
2017-12-21T04:40:40.351Z,90.50
2017-12-21T04:43:07.966Z,90.50
2017-12-21T04:45:36.269Z,90.40
2017-12-21T04:48:03.990Z,90.40
2017-12-21T04:50:32.518Z,90.90
2017-12-21T04:52:59.996Z,90.70
2017-12-21T04:55:27.822Z,90.50
2017-12-21T04:57:55.445Z,90.50
2017-12-21T05:00:22.933Z,90.70
2017-12-21T05:02:53.030Z,91.10
2017-12-21T05:05:21.590Z,90.80
2017-12-21T05:07:49.350Z,90.90
2017-12-21T05:10:16.849Z,90.90
2017-12-21T05:12:44.363Z,90.90
2017-12-21T05:15:12.621Z,90.80
2017-12-21T05:17:40.104Z,90.80
2017-12-21T05:20:07.604Z,91.00
2017-12-21T05:22:35.877Z,90.90
2017-12-21T05:25:03.468Z,90.90
2017-12-21T05:27:30.975Z,90.90
2017-12-21T05:29:59.241Z,90.80
2017-12-21T05:32:26.867Z,90.80
2017-12-21T05:34:54.353Z,90.90
2017-12-21T05:37:21.885Z,91.20
2017-12-21T05:39:49.376Z,90.90
2017-12-21T05:42:16.886Z,90.90
2017-12-21T05:44:45.148Z,90.80
2017-12-21T05:47:13.398Z,90.80
2017-12-21T05:49:40.922Z,90.80
2017-12-21T05:52:08.440Z,90.80
2017-12-21T05:54:35.924Z,90.80
2017-12-21T05:57:04.234Z,91.10
2017-12-21T05:59:31.773Z,91.00
2017-12-21T06:02:00.024Z,90.80
2017-12-21T06:04:28.350Z,90.80
2017-12-21T06:06:55.830Z,90.90
2017-12-21T06:09:23.324Z,90.90
2017-12-21T06:11:50.864Z,90.90
2017-12-21T06:14:18.369Z,90.90
2017-12-21T06:16:45.875Z,90.80
2017-12-21T06:19:13.374Z,90.70
2017-12-21T06:21:40.882Z,90.80
2017-12-21T06:24:08.398Z,90.60
2017-12-21T06:26:36.256Z,90.80
2017-12-21T06:29:03.805Z,90.80
2017-12-21T06:31:31.328Z,90.80
2017-12-21T06:33:58.827Z,90.60
2017-12-21T06:36:27.131Z,90.80
2017-12-21T06:38:54.633Z,90.90
2017-12-21T06:41:22.898Z,90.90
2017-12-21T06:43:50.573Z,90.90
2017-12-21T06:46:18.132Z,90.80
2017-12-21T06:48:45.774Z,90.80
2017-12-21T06:51:13.288Z,90.80
2017-12-21T06:53:40.889Z,90.70
2017-12-21T06:56:08.375Z,90.50
2017-12-21T06:58:37.035Z,90.70
2017-12-21T07:01:04.861Z,90.70
2017-12-21T07:03:33.129Z,90.60
2017-12-21T07:06:00.627Z,90.60
2017-12-21T07:08:28.192Z,90.50
2017-12-21T07:10:55.676Z,90.50
2017-12-21T07:13:23.235Z,90.50
2017-12-21T07:15:50.711Z,90.50
2017-12-21T07:18:19.069Z,90.40
2017-12-21T07:20:47.388Z,90.40
2017-12-21T07:23:14.983Z,90.30
2017-12-21T07:25:42.510Z,90.20
2017-12-21T07:28:09.999Z,90.10
2017-12-21T07:30:38.305Z,90.60
2017-12-21T07:33:06.578Z,90.50
2017-12-21T07:35:37.505Z,90.60
2017-12-21T07:38:04.983Z,90.60
2017-12-21T07:40:33.491Z,90.70
2017-12-21T07:43:01.021Z,90.70
2017-12-21T07:45:29.315Z,90.80
2017-12-21T07:47:57.575Z,90.90
2017-12-21T07:50:25.148Z,90.90
2017-12-21T07:52:53.477Z,90.80
2017-12-21T07:55:21.004Z,90.80
2017-12-21T07:57:49.323Z,90.80
2017-12-21T08:00:16.839Z,90.80
2017-12-21T08:02:44.323Z,90.90
2017-12-21T08:05:12.601Z,91.20
2017-12-21T08:07:40.896Z,91.10
2017-12-21T08:10:08.422Z,91.10
2017-12-21T08:12:36.692Z,91.10
2017-12-21T08:15:04.276Z,91.10
2017-12-21T08:17:32.629Z,91.00
2017-12-21T08:20:00.121Z,91.00
2017-12-21T08:22:27.614Z,90.90
2017-12-21T08:24:55.147Z,90.80
2017-12-21T08:27:23.412Z,91.10
2017-12-21T08:29:51.905Z,91.00
2017-12-21T08:32:19.414Z,91.10
2017-12-21T08:34:46.937Z,91.10
2017-12-21T08:37:14.416Z,91.00
2017-12-21T08:39:41.987Z,90.80
2017-12-21T08:42:10.342Z,90.80
2017-12-21T08:44:38.630Z,90.50
2017-12-21T08:47:07.643Z,90.60
2017-12-21T08:49:36.114Z,90.50
2017-12-21T08:52:04.469Z,90.40
2017-12-21T08:54:31.963Z,90.40
2017-12-21T08:57:00.422Z,90.40
2017-12-21T08:59:27.967Z,90.40
2017-12-21T09:01:55.463Z,90.30
2017-12-21T09:04:23.944Z,90.40
2017-12-21T09:06:51.566Z,90.10
2017-12-21T09:09:19.271Z,90.00
2017-12-21T09:11:47.582Z,89.20
2017-12-21T09:14:16.089Z,89.50
2017-12-21T09:16:43.622Z,89.30
2017-12-21T09:19:11.896Z,88.50
2017-12-21T09:21:41.535Z,87.80
2017-12-21T09:24:09.398Z,87.80
2017-12-21T09:26:36.978Z,87.50
2017-12-21T09:29:04.622Z,87.20
2017-12-21T09:31:32.593Z,87.30
2017-12-21T09:34:00.355Z,87.60
2017-12-21T09:36:27.877Z,87.20
2017-12-21T09:38:55.345Z,87.30
2017-12-21T09:41:22.842Z,86.80
2017-12-21T09:43:51.234Z,86.20
2017-12-21T09:46:19.512Z,85.70
2017-12-21T09:48:47.822Z,85.50
2017-12-21T09:51:15.349Z,85.50
2017-12-21T09:53:43.455Z,85.20
2017-12-21T09:56:11.034Z,85.00
2017-12-21T09:58:38.573Z,85.10
2017-12-21T10:01:06.917Z,83.50
2017-12-21T10:03:34.427Z,83.50
2017-12-21T10:06:01.928Z,83.50
2017-12-21T10:08:29.492Z,83.00
2017-12-21T10:10:57.104Z,83.30
2017-12-21T10:13:25.366Z,82.90
2017-12-21T10:15:53.587Z,82.90
2017-12-21T10:18:21.073Z,81.80
2017-12-21T10:20:48.572Z,81.90
2017-12-21T10:23:16.058Z,82.20
2017-12-21T10:25:43.655Z,81.90
2017-12-21T10:28:11.822Z,80.90
2017-12-21T10:30:39.357Z,81.10
2017-12-21T10:33:07.631Z,80.40
2017-12-21T10:35:35.921Z,80.40
2017-12-21T10:38:04.227Z,80.30
2017-12-21T10:40:31.750Z,80.20
2017-12-21T10:42:59.289Z,80.20
2017-12-21T10:45:27.763Z,80.40
2017-12-21T10:47:55.265Z,80.50
2017-12-21T10:50:24.256Z,80.60
2017-12-21T10:52:51.779Z,81.20
2017-12-21T10:55:20.153Z,81.00
2017-12-21T10:57:47.674Z,81.20
2017-12-21T11:00:15.165Z,80.30
2017-12-21T11:02:42.710Z,80.30
2017-12-21T11:05:10.979Z,79.80
2017-12-21T11:07:39.397Z,79.70
2017-12-21T11:10:07.301Z,79.60
2017-12-21T11:12:34.833Z,80.00
2017-12-21T11:15:02.362Z,80.10
2017-12-21T11:17:30.686Z,80.00
2017-12-21T11:19:58.849Z,79.70
2017-12-21T11:22:26.373Z,78.90
2017-12-21T11:24:53.899Z,79.20
2017-12-21T11:27:21.423Z,79.50
2017-12-21T11:29:49.677Z,78.50
2017-12-21T11:32:17.609Z,78.50
2017-12-21T11:34:45.916Z,78.40
2017-12-21T11:37:14.492Z,78.40
2017-12-21T11:39:42.191Z,79.00
2017-12-21T11:42:10.198Z,78.80
2017-12-21T11:44:38.090Z,79.10
2017-12-21T11:47:05.774Z,79.30
2017-12-21T11:49:33.595Z,79.60
2017-12-21T11:52:04.181Z,79.30
2017-12-21T11:54:31.959Z,79.10
2017-12-21T11:57:00.668Z,78.70
2017-12-21T11:59:28.305Z,79.00
2017-12-21T12:01:56.188Z,79.10
2017-12-21T12:04:25.216Z,79.60
2017-12-21T12:06:53.818Z,79.80
2017-12-21T12:09:25.003Z,79.90
2017-12-21T12:11:53.347Z,79.80
2017-12-21T12:14:21.729Z,78.90
2017-12-21T12:16:50.191Z,79.30
2017-12-21T12:19:18.500Z,78.70
2017-12-21T12:21:46.174Z,78.70
2017-12-21T12:24:13.774Z,78.70
2017-12-21T12:26:41.324Z,78.30
2017-12-21T12:29:10.110Z,78.30
2017-12-21T12:31:37.958Z,78.30
2017-12-21T12:34:07.021Z,78.00
2017-12-21T12:36:35.322Z,78.10
2017-12-21T12:39:03.605Z,78.80
2017-12-21T12:41:32.308Z,78.60
2017-12-21T12:44:01.076Z,79.00
2017-12-21T12:46:28.602Z,79.00
2017-12-21T12:48:56.108Z,79.20
2017-12-21T12:51:23.822Z,79.20
2017-12-21T12:53:51.425Z,79.40
2017-12-21T12:56:19.042Z,79.40
2017-12-21T12:58:46.586Z,79.40
2017-12-21T13:01:15.268Z,79.40
2017-12-21T13:03:43.550Z,79.60
2017-12-21T13:06:11.098Z,79.50
2017-12-21T13:08:38.602Z,79.00
2017-12-21T13:11:06.186Z,78.80
2017-12-21T13:13:33.734Z,78.90
2017-12-21T13:16:01.237Z,78.90
2017-12-21T13:18:30.015Z,79.00
2017-12-21T13:20:58.236Z,78.90
2017-12-21T13:23:26.514Z,79.60
2017-12-21T13:25:54.805Z,79.10
2017-12-21T13:28:23.062Z,79.20
2017-12-21T13:30:50.581Z,79.20
2017-12-21T13:33:18.077Z,78.90
2017-12-21T13:35:45.578Z,79.30
2017-12-21T13:38:13.848Z,79.80
2017-12-21T13:40:42.507Z,80.20
2017-12-21T13:43:10.012Z,80.10
2017-12-21T13:45:38.356Z,80.40
2017-12-21T13:48:05.850Z,80.30
2017-12-21T13:50:35.178Z,80.50
2017-12-21T13:53:02.996Z,80.50
2017-12-21T13:55:30.578Z,80.20
2017-12-21T13:57:58.080Z,80.50
2017-12-21T14:00:25.575Z,80.20
2017-12-21T14:02:53.297Z,79.70
2017-12-21T14:05:21.816Z,80.00
2017-12-21T14:07:49.768Z,80.00
2017-12-21T14:10:17.540Z,80.30
2017-12-21T14:12:45.470Z,80.20
2017-12-21T14:15:13.289Z,80.10
2017-12-21T14:17:42.138Z,80.00
2017-12-21T14:20:10.459Z,80.20
2017-12-21T14:22:38.364Z,80.40
2017-12-21T14:25:06.683Z,80.50
2017-12-21T14:27:34.602Z,80.40
2017-12-21T14:30:02.389Z,80.30
2017-12-21T14:32:30.613Z,80.60
2017-12-21T14:34:58.162Z,80.70
2017-12-21T14:37:25.737Z,80.60
2017-12-21T14:39:53.284Z,80.50
2017-12-21T14:42:21.176Z,80.30
2017-12-21T14:44:49.628Z,80.50
2017-12-21T14:47:17.265Z,80.40
2017-12-21T14:49:44.869Z,80.30
2017-12-21T14:52:12.657Z,80.20
2017-12-21T14:54:41.038Z,79.90
2017-12-21T14:57:08.920Z,79.90
2017-12-21T14:59:37.289Z,79.80
2017-12-21T15:02:05.618Z,79.50
2017-12-21T15:04:33.762Z,79.50
2017-12-21T15:07:02.197Z,79.80
2017-12-21T15:12:03.762Z,80.10
2017-12-21T15:14:31.867Z,80.30
2017-12-21T15:17:00.182Z,79.80
2017-12-21T15:19:28.504Z,79.80
2017-12-21T15:21:56.026Z,79.80
2017-12-21T15:24:24.510Z,79.70
2017-12-21T15:26:52.834Z,79.80
2017-12-21T15:29:20.540Z,79.80
2017-12-21T15:31:48.138Z,79.80
2017-12-21T15:34:15.662Z,79.90
2017-12-21T15:36:43.192Z,79.80
2017-12-21T15:39:10.694Z,79.50
2017-12-21T15:41:38.248Z,79.50
2017-12-21T15:44:05.744Z,79.50
2017-12-21T15:46:34.045Z,79.60
2017-12-21T15:49:01.698Z,79.60
2017-12-21T15:51:29.958Z,79.30
2017-12-21T15:53:58.275Z,79.30
2017-12-21T15:56:25.817Z,79.30
2017-12-21T15:58:54.111Z,78.80
2017-12-21T16:01:21.703Z,78.80
2017-12-21T16:03:49.194Z,78.70
2017-12-21T16:06:16.709Z,78.80
2017-12-21T16:08:44.270Z,79.10
2017-12-21T16:11:11.774Z,79.00
2017-12-21T16:13:39.301Z,78.50
2017-12-21T16:16:06.879Z,78.60
2017-12-21T16:18:34.399Z,78.50
2017-12-21T16:21:02.735Z,78.40
2017-12-21T16:23:30.247Z,78.40
2017-12-21T16:25:58.537Z,78.60
2017-12-21T16:28:26.833Z,78.30
2017-12-21T16:30:54.357Z,78.30
2017-12-21T16:33:22.689Z,78.40
2017-12-21T16:35:50.230Z,78.40
2017-12-21T16:38:18.541Z,78.10
2017-12-21T16:40:46.090Z,78.10
2017-12-21T16:43:13.592Z,78.30
2017-12-21T16:45:41.113Z,78.60
2017-12-21T16:48:08.614Z,77.60
2017-12-21T16:50:36.139Z,77.90
2017-12-21T16:53:03.628Z,77.70
2017-12-21T16:55:31.182Z,77.60
2017-12-21T16:57:58.701Z,77.40
2017-12-21T17:00:26.989Z,78.20
2017-12-21T17:02:55.305Z,77.20
2017-12-21T17:05:22.836Z,77.10
2017-12-21T17:07:51.092Z,76.20
2017-12-21T17:10:18.664Z,76.10
2017-12-21T17:12:46.164Z,76.30
2017-12-21T17:15:13.845Z,76.60
2017-12-21T17:17:41.345Z,76.00
2017-12-21T17:20:08.848Z,76.10
2017-12-21T17:22:36.391Z,75.60
2017-12-21T17:25:04.679Z,76.20
2017-12-21T17:27:32.947Z,76.20
2017-12-21T17:30:00.524Z,76.20
2017-12-21T17:32:28.804Z,75.80
2017-12-21T17:34:57.097Z,75.90
2017-12-21T17:37:24.581Z,75.90
2017-12-21T17:39:52.112Z,76.00
2017-12-21T17:42:20.383Z,76.50
2017-12-21T17:44:48.662Z,76.80
2017-12-21T17:47:16.177Z,76.70
2017-12-21T17:49:43.703Z,76.60
2017-12-21T17:52:11.968Z,76.80
2017-12-21T17:54:39.512Z,76.80
2017-12-21T17:57:07.000Z,76.70
2017-12-21T17:59:35.269Z,77.40
2017-12-21T18:02:03.550Z,77.60
2017-12-21T18:04:31.127Z,77.10
2017-12-21T18:06:58.611Z,76.90
2017-12-21T18:09:26.104Z,76.90
2017-12-21T18:11:53.610Z,77.00
2017-12-21T18:14:21.108Z,76.90
2017-12-21T18:16:48.613Z,76.10
2017-12-21T18:19:16.145Z,76.40
2017-12-21T18:21:43.645Z,76.50
2017-12-21T18:24:11.164Z,76.30
2017-12-21T18:26:38.668Z,76.20
2017-12-21T18:29:06.175Z,76.40
2017-12-21T18:31:34.453Z,76.20
2017-12-21T18:34:02.729Z,76.00
2017-12-21T18:36:30.969Z,76.10
2017-12-21T18:38:58.590Z,76.10
2017-12-21T18:41:27.016Z,76.10
2017-12-21T18:43:54.520Z,75.70
2017-12-21T18:46:22.886Z,75.80
2017-12-21T18:48:51.160Z,75.80
2017-12-21T18:51:20.757Z,75.90
2017-12-21T18:53:48.292Z,76.00
2017-12-21T18:56:16.359Z,75.20
2017-12-21T18:58:43.858Z,75.40
2017-12-21T19:01:11.351Z,75.90
2017-12-21T19:03:39.616Z,75.60
2017-12-21T19:06:07.130Z,75.40
2017-12-21T19:08:34.633Z,75.70
2017-12-21T19:11:02.145Z,75.40
2017-12-21T19:13:29.708Z,75.80
2017-12-21T19:15:57.208Z,76.00
2017-12-21T19:18:24.736Z,76.10
2017-12-21T19:20:52.310Z,76.50
2017-12-21T19:23:19.801Z,76.50
2017-12-21T19:25:48.492Z,76.80
2017-12-21T19:28:15.993Z,76.90
2017-12-21T19:30:44.304Z,76.70
2017-12-21T19:33:11.773Z,76.70
2017-12-21T19:35:39.278Z,76.50
2017-12-21T19:38:06.882Z,76.40
2017-12-21T19:40:34.381Z,76.80
2017-12-21T19:43:01.898Z,76.10
2017-12-21T19:45:30.189Z,76.30
2017-12-21T19:47:58.430Z,76.30
2017-12-21T19:50:26.028Z,76.30
2017-12-21T19:52:54.288Z,76.50
2017-12-21T19:55:21.893Z,76.50
2017-12-21T19:57:49.469Z,76.40
2017-12-21T20:00:17.006Z,76.20
2017-12-21T20:02:44.492Z,76.50
2017-12-21T20:05:12.570Z,76.70
2017-12-21T20:07:40.063Z,77.00
2017-12-21T20:10:07.569Z,76.70
2017-12-21T20:12:35.691Z,76.40
2017-12-21T20:15:03.169Z,76.80
2017-12-21T20:17:30.801Z,77.10
2017-12-21T20:19:58.285Z,77.00
2017-12-21T20:22:25.847Z,77.10
2017-12-21T20:24:53.364Z,76.70
2017-12-21T20:27:21.665Z,76.50
2017-12-21T20:29:49.159Z,76.50
2017-12-21T20:32:16.640Z,76.60
2017-12-21T20:34:44.132Z,76.70
2017-12-21T20:37:12.408Z,76.60
2017-12-21T20:39:40.722Z,76.60
2017-12-21T20:42:08.230Z,76.50
2017-12-21T20:44:35.730Z,76.80
2017-12-21T20:47:04.041Z,76.70
2017-12-21T20:49:31.546Z,76.90
2017-12-21T20:51:59.042Z,76.90
2017-12-21T20:54:26.526Z,76.80
2017-12-21T20:56:54.036Z,76.80
2017-12-21T20:59:21.538Z,77.00
2017-12-21T21:01:49.054Z,77.00
2017-12-21T21:04:16.547Z,77.40
2017-12-21T21:06:44.798Z,77.20
2017-12-21T21:09:12.299Z,77.20
2017-12-21T21:11:40.092Z,77.60
2017-12-21T21:14:07.612Z,77.70
2017-12-21T21:16:35.858Z,77.50
2017-12-21T21:19:03.382Z,77.50
2017-12-21T21:21:30.929Z,77.50
2017-12-21T21:23:59.236Z,77.50
2017-12-21T21:26:26.735Z,77.50
2017-12-21T21:28:54.235Z,77.60
2017-12-21T21:31:22.507Z,77.50
2017-12-21T21:33:50.780Z,77.30
2017-12-21T21:36:18.282Z,77.30
2017-12-21T21:38:45.797Z,77.30
2017-12-21T21:41:13.999Z,77.40
2017-12-21T21:43:42.305Z,77.40
2017-12-21T21:46:09.839Z,77.40
2017-12-21T21:48:38.102Z,77.50
2017-12-21T21:51:05.639Z,77.50
2017-12-21T21:53:33.130Z,77.50
2017-12-21T21:56:00.656Z,77.30
2017-12-21T21:58:28.304Z,77.50
2017-12-21T22:00:55.780Z,77.60
2017-12-21T22:03:23.267Z,78.00
2017-12-21T22:05:50.776Z,77.90
2017-12-21T22:08:18.358Z,78.00
2017-12-21T22:10:46.690Z,77.90
2017-12-21T22:13:14.202Z,77.70
2017-12-21T22:15:41.715Z,77.80
2017-12-21T22:18:09.345Z,78.00
2017-12-21T22:20:37.226Z,78.20
2017-12-21T22:23:04.758Z,78.30
2017-12-21T22:25:32.977Z,78.90
2017-12-21T22:28:00.470Z,78.70
2017-12-21T22:30:28.073Z,78.80
2017-12-21T22:32:55.639Z,79.00
2017-12-21T22:35:23.123Z,78.90
2017-12-21T22:37:50.645Z,78.50
2017-12-21T22:40:18.150Z,78.50
2017-12-21T22:42:45.690Z,78.50
2017-12-21T22:45:13.229Z,78.40
2017-12-21T22:47:40.750Z,79.20
2017-12-21T22:50:08.236Z,78.50
2017-12-21T22:52:35.771Z,78.50
2017-12-21T22:55:03.273Z,79.00
2017-12-21T22:57:31.572Z,78.40
2017-12-21T22:59:59.060Z,78.40
2017-12-21T23:02:26.594Z,78.50
2017-12-21T23:04:54.869Z,78.40
2017-12-21T23:07:23.148Z,78.50
2017-12-21T23:09:51.412Z,78.60
2017-12-21T23:12:18.902Z,78.60
2017-12-21T23:14:47.201Z,78.50
2017-12-21T23:17:14.697Z,78.40
2017-12-21T23:19:42.200Z,78.60
2017-12-21T23:22:10.438Z,79.20
2017-12-21T23:24:37.950Z,79.10
2017-12-21T23:27:06.235Z,79.30
2017-12-21T23:29:33.730Z,79.20
2017-12-21T23:32:02.205Z,79.20
2017-12-21T23:34:29.673Z,79.10
2017-12-21T23:36:57.222Z,79.20
2017-12-21T23:39:24.713Z,79.00
2017-12-21T23:41:52.265Z,79.20
2017-12-21T23:44:19.767Z,79.10
2017-12-21T23:46:47.597Z,79.40
2017-12-21T23:49:15.108Z,79.10
2017-12-21T23:51:42.581Z,78.90
2017-12-21T23:54:10.872Z,79.40
2017-12-21T23:56:39.645Z,79.40
2017-12-21T23:59:07.216Z,79.40
